TimeCDT,TemperatureF,Dew PointF,Humidity,Sea Level PressureIn,VisibilityMPH,Wind Direction,Wind SpeedMPH,Gust SpeedMPH,PrecipitationIn,Events,Conditions,WindDirDegrees,DateUTC
12:48 AM,66.2,60.8,83,30.10,10.0,SSE,9.2,-,N/A,,Mostly Cloudy,160,2013-03-30 05:48:00
12:58 AM,65.8,60.3,82,30.09,10.0,SSE,10.4,-,N/A,,Mostly Cloudy,150,2013-03-30 05:58:00
1:38 AM,66.2,60.8,83,30.10,10.0,SSE,8.1,-,N/A,,Overcast,150,2013-03-30 06:38:00
1:58 AM,66.0,60.8,83,30.09,10.0,SE,8.1,-,N/A,,Overcast,140,2013-03-30 06:58:00
2:49 AM,64.4,60.8,88,30.07,10.0,SE,11.5,-,N/A,,Overcast,140,2013-03-30 07:49:00
2:58 AM,64.8,60.8,87,30.05,10.0,SSE,12.7,-,N/A,,Overcast,150,2013-03-30 07:58:00
3:53 AM,64.4,60.8,88,30.06,10.0,SSE,6.9,-,N/A,,Overcast,150,2013-03-30 08:53:00
3:58 AM,64.4,61.2,89,30.05,10.0,SSE,9.2,-,N/A,,Overcast,150,2013-03-30 08:58:00
4:58 AM,64.4,61.5,90,30.04,10.0,South,8.1,-,N/A,,Overcast,170,2013-03-30 09:58:00
5:33 AM,64.4,60.8,88,30.05,10.0,South,5.8,-,N/A,,Overcast,170,2013-03-30 10:33:00
5:58 AM,64.2,61.5,91,30.06,10.0,Calm,Calm,-,N/A,,Overcast,330,2013-03-30 10:58:00
6:33 AM,64.4,62.6,94,30.07,10.0,SSE,5.8,-,N/A,,Overcast,150,2013-03-30 11:33:00
6:58 AM,64.2,61.9,92,30.07,10.0,SSE,2.3,-,N/A,,Overcast,150,2013-03-30 11:58:00
7:28 AM,64.4,62.6,94,30.07,10.0,SSE,6.9,-,N/A,,Overcast,160,2013-03-30 12:28:00
7:58 AM,64.4,61.7,91,30.06,10.0,SSE,6.9,-,N/A,,Overcast,160,2013-03-30 12:58:00
8:58 AM,64.9,61.9,90,30.07,10.0,South,8.1,-,N/A,,Overcast,170,2013-03-30 13:58:00
9:38 AM,66.2,62.6,88,30.08,10.0,South,8.1,-,N/A,,Overcast,170,2013-03-30 14:38:00
9:58 AM,66.4,62.4,87,30.06,10.0,SSE,10.4,-,N/A,,Overcast,160,2013-03-30 14:58:00
10:33 AM,68.0,62.6,83,30.07,10.0,SSE,10.4,-,N/A,,Overcast,160,2013-03-30 15:33:00
10:58 AM,69.3,63.0,80,30.06,10.0,South,9.2,-,N/A,,Overcast,170,2013-03-30 15:58:00
11:08 AM,69.8,62.6,78,30.07,10.0,SSE,9.2,-,N/A,,Overcast,160,2013-03-30 16:08:00
11:13 AM,69.8,62.6,78,30.07,10.0,South,9.2,-,N/A,,Overcast,180,2013-03-30 16:13:00
11:18 AM,71.6,62.6,73,30.07,10.0,South,10.4,-,N/A,,Overcast,170,2013-03-30 16:18:00
11:23 AM,71.6,62.6,73,30.06,10.0,South,10.4,-,N/A,,Overcast,180,2013-03-30 16:23:00
11:48 AM,71.6,62.6,73,30.06,10.0,SSE,9.2,-,N/A,,Overcast,150,2013-03-30 16:48:00
11:58 AM,73.4,63.7,71,30.05,10.0,SE,9.2,-,N/A,,Overcast,140,2013-03-30 16:58:00
12:08 PM,75.2,62.6,65,30.06,10.0,SE,10.4,-,N/A,,Overcast,140,2013-03-30 17:08:00
12:13 PM,73.4,62.6,69,30.05,10.0,South,11.5,-,N/A,,Overcast,180,2013-03-30 17:13:00
12:18 PM,75.2,62.6,65,30.05,10.0,SSE,9.2,-,N/A,,Overcast,160,2013-03-30 17:18:00
12:23 PM,75.2,62.6,65,30.05,10.0,SE,8.1,-,N/A,,Overcast,140,2013-03-30 17:23:00
12:38 PM,75.2,62.6,65,30.04,10.0,South,9.2,-,N/A,,Mostly Cloudy,170,2013-03-30 17:38:00
12:48 PM,77.0,62.6,61,30.04,10.0,South,9.2,-,N/A,,Scattered Clouds,180,2013-03-30 17:48:00
12:58 PM,76.6,62.6,62,30.03,10.0,South,8.1,-,N/A,,Scattered Clouds,190,2013-03-30 17:58:00
1:13 PM,77.0,62.6,61,30.03,10.0,SSE,11.5,-,N/A,,Mostly Cloudy,150,2013-03-30 18:13:00
1:58 PM,79.7,61.2,53,29.99,10.0,SSE,10.4,-,N/A,,Mostly Cloudy,160,2013-03-30 18:58:00
2:58 PM,81.5,60.3,48,29.96,10.0,South,6.9,-,N/A,,Mostly Cloudy,190,2013-03-30 19:58:00
3:23 PM,82.4,60.8,48,29.96,10.0,South,5.8,-,N/A,,Overcast,180,2013-03-30 20:23:00
3:58 PM,81.9,60.8,49,29.94,10.0,South,9.2,-,N/A,,Mostly Cloudy,180,2013-03-30 20:58:00
4:13 PM,82.4,60.8,48,29.94,10.0,South,10.4,-,N/A,,Mostly Cloudy,190,2013-03-30 21:13:00
4:18 PM,82.4,60.8,48,29.94,10.0,SSW,10.4,-,N/A,,Overcast,200,2013-03-30 21:18:00
4:43 PM,82.4,60.8,48,29.92,10.0,SSW,10.4,-,N/A,,Scattered Clouds,200,2013-03-30 21:43:00
4:58 PM,83.7,60.8,46,29.91,10.0,SSE,9.2,-,N/A,,Scattered Clouds,160,2013-03-30 21:58:00
5:18 PM,84.2,60.8,45,29.92,10.0,South,9.2,-,N/A,,Mostly Cloudy,170,2013-03-30 22:18:00
5:28 PM,82.4,60.8,48,29.92,10.0,South,9.2,-,N/A,,Scattered Clouds,180,2013-03-30 22:28:00
5:58 PM,82.2,59.7,46,29.90,10.0,SSE,5.8,-,N/A,,Clear,160,2013-03-30 22:58:00
6:58 PM,82.4,60.4,47,29.88,10.0,South,9.2,-,N/A,,Clear,170,2013-03-30 23:58:00
7:58 PM,76.6,59.9,56,29.88,10.0,SE,6.9,-,N/A,,Clear,140,2013-03-31 00:58:00
8:58 PM,76.1,59.7,57,29.88,10.0,ESE,5.8,-,N/A,,Clear,120,2013-03-31 01:58:00
9:58 PM,75.4,61.7,62,29.91,10.0,SE,12.7,-,N/A,,Clear,140,2013-03-31 02:58:00
10:58 PM,72.1,63.3,74,29.93,10.0,SE,16.1,-,N/A,,Clear,130,2013-03-31 03:58:00
11:58 PM,69.4,63.1,80,29.94,10.0,ESE,10.4,-,N/A,,Clear,120,2013-03-31 04:58:00